Harmony Livestock — 5IM640 — position and weather

sailwx.info

Track history (hours):
 
Tides and Currents Weather Stations Pressure Air Temp Water Temp Dewpoint Dewpoint Depression Visibility Wind Speed Wind Dir Waves Ship Positions

Harmony Livestock

Last reported at 2018-Apr-18 08:22 UTC. Time now 2018-Apr-25 01:02 UTC.
Position N 33°56' E 035°13'.

; draft 4.8 m.

Type: Other ship. MMSI: 677054000.

Date/timePositionNaut miles runAvg speedWind from/ knotsBaromVisibWave heightAir tempDewpointWater temp
2018-Apr-18 08:22N 33°56' E 035°13'3 9.1
2018-Apr-18 08:00N 33°56' E 035°09'5 9.0
2018-Apr-18 07:29N 33°58' E 035°03'5 9.0
2018-Apr-18 06:58N 33°59' E 034°58'6 9.0
2018-Apr-18 06:20N 34°00' E 034°51'6 9.0
2018-Apr-18 05:37N 34°02' E 034°44'4 9.0
2018-Apr-18 05:09N 34°03' E 034°39'1 9.1
2018-Apr-18 04:59N 34°03' E 034°37'4 9.0
2018-Apr-18 04:30N 34°04' E 034°32'4 8.9
2018-Apr-18 04:00N 34°05' E 034°27'7 8.9
2018-Apr-18 03:15N 34°07' E 034°19'2 8.9
2018-Apr-18 02:59N 34°07' E 034°16'7 9.0
2018-Apr-18 02:15N 34°09' E 034°08'2 9.1
2018-Apr-18 02:00N 34°09' E 034°06'5 9.1
2018-Apr-18 01:31N 34°10' E 034°00'5 9.1
2018-Apr-18 01:00N 34°11' E 033°55'7 9.0
2018-Apr-18 00:13N 34°11' E 033°46'2 9.1
2018-Apr-17 23:59N 34°12' E 033°44'6 9.0
2018-Apr-17 23:20N 34°13' E 033°37'4 9.5
2018-Apr-17 22:57N 34°13' E 033°32'4 8.7
2018-Apr-17 22:30N 34°15' E 033°28'98 9.3
2018-Apr-17 12:02N 34°51' E 031°38'0 8.9
2018-Apr-17 11:58N 34°51' E 031°37'392 7.9
2018-Apr-15 10:13N 39°35' E 025°59'5 9.5
2018-Apr-15 09:43N 39°39' E 026°01'  
Track history (hours):
 
Tides and Currents Weather Stations Pressure Air Temp Water Temp Dewpoint Dewpoint Depression Visibility Wind Speed Wind Dir Waves Ship Positions

Harmony Livestock

Last reported at 2018-Apr-18 08:22 UTC. Time now 2018-Apr-25 01:02 UTC.
Position N 33°56' E 035°13'.

; draft 4.8 m.

Type: Other ship. MMSI: 677054000.

Date/timePositionNaut miles runAvg speedWind from/ knotsBaromVisibWave heightAir tempDewpointWater temp
2018-Apr-18 08:22N 33°56' E 035°13'3 9.1
2018-Apr-18 08:00N 33°56' E 035°09'5 9.0
2018-Apr-18 07:29N 33°58' E 035°03'5 9.0
2018-Apr-18 06:58N 33°59' E 034°58'6 9.0
2018-Apr-18 06:20N 34°00' E 034°51'6 9.0
2018-Apr-18 05:37N 34°02' E 034°44'4 9.0
2018-Apr-18 05:09N 34°03' E 034°39'1 9.1
2018-Apr-18 04:59N 34°03' E 034°37'4 9.0
2018-Apr-18 04:30N 34°04' E 034°32'4 8.9
2018-Apr-18 04:00N 34°05' E 034°27'7 8.9
2018-Apr-18 03:15N 34°07' E 034°19'2 8.9
2018-Apr-18 02:59N 34°07' E 034°16'7 9.0
2018-Apr-18 02:15N 34°09' E 034°08'2 9.1
2018-Apr-18 02:00N 34°09' E 034°06'5 9.1
2018-Apr-18 01:31N 34°10' E 034°00'5 9.1
2018-Apr-18 01:00N 34°11' E 033°55'7 9.0
2018-Apr-18 00:13N 34°11' E 033°46'2 9.1
2018-Apr-17 23:59N 34°12' E 033°44'6 9.0
2018-Apr-17 23:20N 34°13' E 033°37'4 9.5
2018-Apr-17 22:57N 34°13' E 033°32'4 8.7
2018-Apr-17 22:30N 34°15' E 033°28'98 9.3
2018-Apr-17 12:02N 34°51' E 031°38'0 8.9
2018-Apr-17 11:58N 34°51' E 031°37'392 7.9
2018-Apr-15 10:13N 39°35' E 025°59'5 9.5
2018-Apr-15 09:43N 39°39' E 026°01'  

Dump ship's entire track history